Date,TemperatureHighF,TemperatureAvgF,TemperatureLowF,DewpointHighF,DewpointAvgF,DewpointLowF,HumidityHigh,HumidityAvg,HumidityLow,PressureMaxIn,PressureMinIn,WindSpeedMaxMPH,WindSpeedAvgMPH,GustSpeedMaxMPH,PrecipitationSumIn
2013-1-1,54,41,32,42,35,30,92,78,54,30.30,30.17,4,1,5,0.00
2013-1-2,58,42,30,38,33,28,93,73,33,30.26,30.16,3,1,6,0.00
2013-1-3,36,33,30,31,29,27,89,86,81,30.25,30.18,0,0,1,0.00
2013-1-4,39,34,30,32,30,28,93,85,76,30.32,30.26,2,0,0,0.00
2013-1-5,56,43,29,46,37,26,94,81,63,30.33,30.15,10,2,0,0.12
2013-1-6,49,44,40,44,41,38,96,91,82,30.17,30.10,6,2,6,0.26
2013-1-7,54,42,34,43,38,33,98,87,62,30.29,30.15,3,0,5,0.01
2013-1-8,61,48,38,48,40,35,94,78,59,30.24,30.15,2,0,2,0.00
2013-1-9,58,44,34,47,40,32,96,86,61,30.18,30.02,8,2,12,0.03
2013-1-10,49,40,34,39,34,28,92,78,56,30.20,30.05,8,2,12,0.00
2013-1-11,49,38,26,36,30,24,96,76,39,30.28,30.15,6,1,9,0.01
2013-1-12,48,38,31,38,32,24,96,83,40,30.27,30.15,4,1,8,0.01
2013-1-13,45,32,26,32,25,22,91,78,47,30.28,30.16,2,0,4,0.00
2013-1-14,48,33,24,26,22,18,81,64,36,30.44,30.24,3,0,6,0.00
2013-1-15,53,35,24,27,24,21,87,65,30,30.51,30.41,1,0,4,0.00
2013-1-16,65,43,27,40,30,23,86,61,33,30.46,30.27,2,0,3,0.00
2013-1-17,69,47,29,39,31,26,90,58,28,30.29,30.15,2,0,2,0.00
2013-1-18,70,48,30,42,31,26,87,56,21,30.26,30.13,3,0,5,0.00
2013-1-19,46,36,30,34,29,26,87,76,58,30.28,30.19,1,0,2,0.00
2013-1-20,69,48,31,39,33,27,88,60,21,30.25,30.11,4,1,4,0.00
2013-1-21,71,51,31,43,36,26,89,60,29,30.20,30.09,3,0,4,0.00
2013-1-22,70,47,29,43,33,24,90,61,31,30.16,30.05,2,0,3,0.00
2013-1-23,62,50,42,42,36,30,76,59,31,30.10,30.01,7,1,9,0.00
2013-1-24,57,51,46,54,48,42,96,92,74,30.15,30.06,2,0,3,0.41
2013-1-25,63,55,52,56,52,50,98,91,73,30.19,30.04,4,1,7,0.07
2013-1-26,62,55,52,54,52,50,96,90,69,30.04,29.95,3,1,6,0.00
2013-1-27,54,45,37,41,37,34,94,75,49,30.16,30.04,8,3,15,0.00
2013-1-28,54,42,32,41,36,30,95,80,55,30.25,30.15,7,2,12,0.00
2013-1-29,41,39,37,39,38,35,96,93,86,30.34,30.29,3,1,2,0.00
2013-1-30,41,39,37,36,35,34,90,85,82,30.36,30.30,1,0,2,0.00
2013-1-31,70,50,34,47,40,33,96,72,38,30.31,30.16,2,0,0,0.00
2013-2-1,70,50,35,51,39,32,95,69,35,30.24,30.13,6,0,4,0.00
2013-2-2,60,51,42,50,43,37,90,76,62,30.29,30.19,3,1,5,0.00
2013-2-3,64,48,41,53,44,40,97,89,61,30.25,30.10,4,2,6,0.00
2013-2-4,68,50,35,52,44,34,98,81,53,30.19,30.03,3,1,5,0.01
2013-2-5,52,44,39,49,42,38,97,92,85,30.14,30.04,7,2,9,0.00
2013-2-6,61,47,37,46,41,36,97,82,51,30.22,30.11,5,2,5,0.01
2013-2-7,55,42,37,44,40,36,97,90,63,30.19,30.05,4,2,7,0.00
2013-2-8,49,40,33,41,36,31,97,87,70,30.04,29.93,7,1,13,0.07
2013-2-9,54,39,28,41,33,26,96,82,42,30.15,30.02,5,1,8,0.01
2013-2-10,58,40,26,42,33,24,97,80,37,30.16,30.02,5,1,5,0.00
2013-2-11,60,42,28,42,34,27,95,76,39,30.29,30.11,3,0,5,0.00
2013-2-12,62,44,30,43,36,28,95,75,49,30.39,30.28,5,1,5,0.01
2013-2-13,64,47,34,43,37,32,97,71,38,30.36,30.20,3,0,4,0.00
2013-2-14,70,50,35,43,38,32,95,67,33,30.26,30.14,4,1,9,0.00
2013-2-15,75,56,39,45,38,30,86,56,21,30.28,30.19,5,1,12,0.00
2013-2-16,73,54,41,45,39,35,84,60,27,30.24,30.05,2,0,4,0.00
2013-2-17,65,44,34,47,36,30,89,75,39,30.06,29.95,5,1,8,0.00
2013-2-18,50,43,34,45,39,32,97,87,74,30.08,29.98,5,1,8,0.00
2013-2-19,51,42,31,42,37,30,96,85,65,30.01,29.75,8,2,18,0.19
2013-2-20,55,41,29,39,34,28,97,78,44,30.10,29.83,6,2,10,0.01
2013-2-21,57,43,30,42,36,29,97,76,50,30.20,30.07,6,1,9,0.00
2013-2-22,63,46,32,40,34,30,94,67,33,30.28,30.18,3,1,6,0.00
2013-2-23,60,47,35,45,37,32,97,71,43,30.26,30.07,8,3,14,0.00
2013-2-24,42,38,34,35,33,30,87,80,74,30.22,30.15,4,2,6,0.00
2013-2-25,66,44,31,40,32,26,85,66,28,30.30,30.12,4,1,8,0.00
2013-2-26,68,49,32,40,31,21,96,57,20,30.23,30.09,5,1,8,0.00
2013-2-27,72,52,35,33,27,21,66,43,15,30.34,30.22,2,0,4,0.00
2013-2-28,72,51,34,45,35,28,80,58,28,30.45,30.34,3,0,4,0.00
2013-3-1,78,59,42,49,43,39,95,60,26,30.43,30.22,4,1,5,0.00
2013-3-2,71,50,42,45,40,26,89,73,19,30.26,30.09,6,0,6,0.00
2013-3-3,70,57,45,50,42,36,92,59,37,30.13,29.99,5,2,9,0.00
2013-3-4,70,52,43,49,44,40,93,76,35,30.16,30.01,4,1,4,0.00
2013-3-5,58,48,42,46,42,38,94,78,48,30.10,30.00,9,4,14,0.00
2013-3-6,57,48,41,49,43,36,96,84,67,30.12,30.02,9,3,14,0.32
2013-3-7,54,46,39,45,40,35,93,82,65,30.03,29.86,7,2,9,0.28
2013-3-8,52,45,40,46,41,36,95,89,75,30.11,29.81,3,1,4,0.05
2013-3-9,48,40,36,42,36,34,91,86,78,30.24,30.11,7,1,8,0.00
2013-3-10,69,50,35,45,39,34,96,69,29,30.38,30.23,4,1,6,0.00
2013-3-11,75,55,37,46,40,34,93,62,29,30.27,30.08,3,1,6,0.00
2013-3-12,79,47,40,45,40,37,91,79,28,30.16,30.04,2,0,5,0.00
2013-3-13,87,61,44,53,43,28,92,59,16,30.17,30.03,5,1,7,0.00
2013-3-14,84,62,43,55,46,39,89,60,27,30.13,30.03,4,1,5,0.00
2013-3-15,83,62,49,49,43,34,79,55,18,30.09,29.97,5,2,9,0.00
2013-3-16,80,59,44,50,44,38,96,61,25,30.07,29.96,6,2,11,0.00
2013-3-17,75,57,45,45,40,25,83,58,16,30.10,29.98,5,2,8,0.00
2013-3-18,73,48,36,43,38,35,93,75,27,30.09,30.01,3,1,4,0.00
2013-3-19,78,58,42,48,42,37,84,57,27,30.15,30.03,6,2,9,0.01
2013-3-20,70,57,48,51,45,41,84,66,41,30.13,30.04,5,1,6,0.00
2013-3-21,72,57,48,50,45,34,93,68,25,30.08,29.92,6,3,11,0.00
2013-3-22,65,47,38,40,34,26,92,66,24,30.06,29.97,4,1,11,0.00
2013-3-23,75,54,35,33,27,22,70,41,15,30.13,29.99,3,1,5,0.00
2013-3-24,80,57,37,40,34,28,80,46,16,30.10,29.92,5,1,7,0.00
2013-3-25,80,56,39,48,40,33,91,58,21,30.02,29.88,6,1,8,0.00
2013-3-26,68,44,42,45,39,38,92,85,43,29.99,29.89,4,1,5,0.00
2013-3-27,71,48,42,49,42,39,91,79,44,30.01,29.96,3,0,7,0.00
2013-3-28,72,54,45,53,47,43,97,80,42,30.09,30.02,10,1,15,0.00
2013-3-29,51,46,42,47,45,41,97,93,85,30.11,30.07,1,0,2,0.00
2013-3-30,68,59,47,52,49,45,94,72,44,30.10,30.02,9,3,11,0.00
2013-3-31,67,56,48,53,49,46,96,79,46,30.11,30.03,9,2,14,0.00
2013-4-1,66,55,47,55,50,43,96,83,57,30.16,30.09,8,2,11,0.04
2013-4-2,75,54,45,49,46,43,96,77,37,30.19,30.03,5,1,9,0.00
2013-4-3,74,53,42,49,45,40,96,78,39,30.13,29.96,6,1,7,0.00
2013-4-4,74,58,47,57,50,44,92,76,51,30.13,30.01,8,1,12,0.01
2013-4-5,73,60,51,53,49,40,92,71,32,30.17,30.05,6,2,9,0.00
2013-4-6,76,57,45,50,46,40,96,73,30,30.20,30.05,5,2,8,0.00
2013-4-7,69,52,48,49,47,46,94,84,48,30.14,30.07,5,3,6,0.00
2013-4-8,64,53,41,45,37,30,85,59,30,29.94,29.81,8,3,15,0.00
2013-4-9,75,56,39,40,35,29,88,52,20,30.03,29.94,6,2,9,0.00
2013-4-10,86,61,41,46,37,31,73,46,16,30.17,29.99,9,1,11,0.00
2013-4-11,78,62,46,48,45,43,93,60,31,30.04,29.79,6,2,9,0.00
2013-4-12,85,55,43,48,43,39,94,72,21,29.92,29.79,4,2,11,0.00
2013-4-13,82,67,44,53,45,41,90,50,26,29.90,29.75,6,2,9,0.00
2013-4-14,80,56,40,43,39,36,91,60,21,29.90,29.78,7,2,15,0.00
2013-4-15,67,52,41,46,37,28,90,59,30,29.95,29.83,11,3,14,0.00
2013-4-16,67,47,33,32,28,9,88,54,11,30.10,29.95,7,2,10,0.00
2013-4-17,71,53,37,34,28,21,78,44,15,30.22,30.10,7,2,14,0.00
2013-4-18,78,58,40,34,27,17,60,35,11,30.28,30.16,9,2,12,0.00
2013-4-19,84,63,40,42,34,30,72,39,15,30.26,30.02,5,1,8,0.00
2013-4-20,89,68,50,47,42,39,76,43,18,30.07,29.90,5,2,8,0.00
2013-4-21,94,69,48,46,38,17,70,39,7,30.01,29.88,6,1,6,0.00
2013-4-22,90,67,48,49,42,38,71,44,18,29.96,29.79,7,1,10,0.00
2013-4-23,89,65,45,51,42,28,86,51,12,29.92,29.80,9,2,15,0.00
2013-4-24,64,52,42,51,46,40,97,82,62,29.95,29.85,10,3,13,0.00
2013-4-25,72,58,46,50,47,44,96,69,43,30.12,29.98,10,2,14,0.00
2013-4-26,88,63,43,50,41,24,94,58,10,30.20,30.08,6,1,9,0.00
2013-4-27,89,50,44,46,43,41,93,79,22,30.20,30.09,3,0,4,0.00
2013-4-28,90,55,47,46,43,28,83,65,11,30.05,29.83,2,0,4,0.00
2013-4-29,98,72,51,48,44,39,75,41,13,29.88,29.70,7,1,8,0.00
2013-4-30,83,66,52,54,47,42,74,53,28,29.84,29.70,8,2,12,0.00
2013-5-1,88,62,44,52,43,30,91,57,13,30.09,29.84,5,1,5,0.00
2013-5-2,96,71,48,50,37,13,80,42,5,30.15,30.03,5,1,8,0.00
2013-5-3,95,72,53,42,33,24,50,28,8,30.08,29.76,10,1,12,0.00
2013-5-4,84,62,50,48,37,25,88,44,18,29.80,29.63,14,5,20,0.00
2013-5-5,63,56,51,50,48,47,92,76,59,29.85,29.71,17,8,21,0.00
2013-5-6,62,56,52,53,50,48,95,81,66,30.00,29.85,10,4,15,0.17
2013-5-7,72,60,51,52,48,43,90,67,39,30.06,29.95,9,2,11,0.00
2013-5-8,77,60,48,52,47,44,90,65,35,30.10,30.03,7,2,10,0.00
2013-5-9,82,60,44,50,46,37,95,65,22,30.14,30.03,8,2,12,0.00
2013-5-10,90,62,48,54,49,45,95,68,27,30.17,30.01,7,2,10,0.00
2013-5-11,101,75,51,58,50,44,87,48,18,30.12,29.96,7,2,11,0.00
2013-5-12,78,64,56,51,47,45,71,55,37,30.11,30.07,2,0,3,0.00
2013-5-13,97,68,54,50,44,22,76,48,9,30.04,29.87,8,2,8,0.00
2013-5-14,82,61,48,53,48,44,91,66,36,30.03,29.91,11,3,14,0.00
2013-5-15,85,60,46,51,44,34,89,63,18,30.07,29.95,9,2,11,0.00
2013-5-16,78,60,47,50,46,43,90,63,32,30.02,29.90,8,3,12,0.00
2013-5-17,80,62,45,47,43,37,92,56,24,30.05,29.93,6,3,10,0.00
2013-5-18,58,48,44,43,40,39,86,74,55,30.12,30.05,5,1,9,0.00
2013-5-19,89,67,49,48,44,40,88,51,19,30.08,29.90,6,3,11,0.00
2013-5-20,96,73,49,43,38,34,68,33,12,30.00,29.85,5,2,8,0.00
2013-5-21,87,70,52,47,40,32,60,37,18,29.94,29.82,8,3,15,0.00
2013-5-22,77,56,43,40,33,8,82,49,7,29.95,29.82,7,4,12,0.00
2013-5-23,73,53,44,41,36,24,81,58,17,29.99,29.90,7,4,9,0.00
2013-5-24,68,48,42,41,38,36,84,70,35,30.01,29.97,5,1,5,0.00
2013-5-25,60,47,42,44,40,38,89,78,53,30.03,29.99,4,1,8,0.00
2013-5-26,82,60,44,49,45,42,93,64,26,30.10,30.00,9,3,13,0.00
2013-5-27,79,62,50,50,47,43,90,62,30,30.09,29.97,9,4,13,0.00
2013-5-28,84,67,51,55,50,44,91,60,25,30.02,29.83,9,4,16,0.00
2013-5-29,88,66,51,56,46,33,87,54,15,29.94,29.79,8,4,14,0.00
2013-5-30,89,51,46,45,43,28,86,76,11,29.93,29.85,4,2,5,0.00
2013-5-31,95,71,49,43,39,33,71,38,12,29.98,29.84,6,2,9,0.00
2013-6-1,102,79,58,46,41,35,56,30,11,29.90,29.69,5,2,7,0.00
2013-6-2,71,61,54,53,47,43,89,62,36,29.78,29.67,12,2,17,0.00
2013-6-3,70,60,53,54,52,49,91,76,56,29.87,29.75,11,4,15,0.00
2013-6-4,76,61,50,55,52,47,90,73,46,29.96,29.86,11,4,18,0.00
2013-6-5,82,65,49,56,51,47,93,65,39,29.99,29.85,10,3,11,0.00
2013-6-6,91,63,48,56,50,45,92,66,30,29.95,29.79,9,2,14,0.00
2013-6-7,106,71,51,59,52,47,89,59,20,29.90,29.68,3,0,6,0.00
2013-6-8,101,72,57,60,54,50,81,56,24,29.83,29.67,13,3,15,0.00
2013-6-9,81,62,53,54,52,49,90,71,36,29.88,29.80,14,5,20,0.00
2013-6-10,75,62,53,54,52,49,90,70,45,29.94,29.87,10,2,14,0.00
2013-6-11,90,67,53,57,52,48,89,65,25,29.96,29.85,8,2,10,0.00
2013-6-12,62,55,50,51,48,46,89,78,67,29.93,29.90,2,0,9,0.00
2013-6-13,65,50,45,46,42,41,90,77,43,30.06,29.98,4,0,5,0.00
2013-6-14,94,71,47,46,38,24,83,37,9,29.95,29.77,8,2,0,0.00
2013-6-15,80,64,50,50,44,36,79,51,27,29.98,29.83,11,2,0,0.00
2013-6-16,94,61,47,49,44,32,94,66,12,30.06,29.95,7,2,9,0.00
2013-6-17,93,70,54,50,45,32,74,47,12,30.05,29.92,7,3,11,0.00
2013-6-18,84,65,51,52,46,39,93,58,21,30.00,29.87,9,4,18,0.00
2013-6-19,82,56,51,45,43,39,77,65,22,30.02,29.91,7,5,11,0.00
2013-6-20,66,54,50,45,42,42,75,65,46,29.96,29.93,5,3,6,0.00
2013-6-21,92,68,50,46,42,36,80,46,14,29.96,29.84,7,2,9,0.00
2013-6-22,94,72,49,49,42,35,79,41,13,29.92,29.78,7,2,8,0.00
2013-6-23,83,66,52,54,50,44,89,61,28,29.86,29.77,6,2,10,0.00
2013-6-24,76,64,55,60,55,50,89,73,54,29.88,29.81,12,3,16,0.00
2013-6-25,86,66,54,60,56,52,94,74,36,29.99,29.89,8,1,11,0.00
2013-6-26,98,74,61,63,60,57,92,67,26,30.02,29.89,6,2,7,0.00
2013-6-27,103,81,64,62,58,55,79,50,21,30.03,29.91,6,2,9,0.00
2013-6-28,107,88,68,57,53,48,61,34,15,29.98,29.81,7,2,9,0.00
2013-6-29,110,89,67,54,46,39,54,27,9,29.88,29.71,9,3,10,0.00
2013-6-30,112,87,66,50,47,43,52,29,11,29.81,29.67,6,3,9,0.00
2013-7-1,108,81,64,60,53,48,62,41,16,29.85,29.72,8,2,10,0.00
2013-7-2,100,80,64,58,55,52,70,46,20,29.89,29.83,11,3,16,0.00
2013-7-3,105,86,64,57,50,45,70,34,15,29.90,29.70,8,3,12,0.00
2013-7-4,102,75,64,57,52,47,59,45,22,29.76,29.65,7,1,11,0.00
2013-7-5,88,72,57,55,52,49,75,52,32,29.79,29.68,10,4,15,0.00
2013-7-6,83,64,49,56,48,34,90,60,27,29.82,29.71,13,3,16,0.00
2013-7-7,92,69,48,55,43,20,93,51,8,29.85,29.75,10,3,14,0.00
2013-7-8,60,52,48,45,44,43,86,73,57,29.89,29.85,0,0,0,0.00
2013-7-9,107,79,54,50,42,31,68,33,8,30.00,29.86,10,2,0,0.00
2013-7-10,99,98,94,49,40,35,22,14,11,29.90,29.89,8,4,0,0.00
2013-7-11,83,81,80,44,42,39,26,25,23,29.90,29.89,11,10,0,0.00
2013-7-12,90,74,59,48,44,39,62,38,20,29.91,29.82,8,2,12,0.00
2013-7-13,96,68,50,51,41,8,83,49,4,29.95,29.84,9,1,11,0.00
2013-7-14,101,73,52,49,40,4,65,38,3,29.98,29.82,8,1,11,0.00
2013-7-15,90,66,49,52,46,39,91,56,18,29.90,29.77,8,2,12,0.00
2013-7-16,86,65,49,53,48,37,92,61,19,30.00,29.88,10,2,13,0.00
2013-7-17,97,70,54,54,50,37,92,59,13,30.07,29.92,7,2,8,0.00
2013-7-18,89,58,50,54,50,41,90,75,22,30.04,29.97,3,1,6,0.00
2013-7-19,102,84,63,49,45,28,60,30,8,29.84,29.76,9,2,11,0.00
2013-7-20,89,70,52,55,50,47,82,52,27,29.84,29.71,11,3,13,0.00
2013-7-21,92,73,55,60,54,48,80,54,24,29.82,29.75,13,4,17,0.00
2013-7-22,89,72,63,60,56,49,80,61,27,29.93,29.81,9,2,11,0.00
2013-7-23,94,73,63,58,52,42,70,53,17,29.98,29.89,9,2,12,0.00
2013-7-24,103,75,57,56,52,48,73,49,19,29.96,29.80,7,1,14,0.00
2013-7-25,103,76,59,57,52,48,72,47,19,30.00,29.86,7,1,8,0.00
2013-7-26,101,72,55,54,51,48,79,54,18,30.06,29.92,8,1,9,0.00
2013-7-27,98,66,54,56,52,48,85,65,21,30.00,29.88,3,1,5,0.00
2013-7-28,84,66,53,56,51,48,85,62,35,29.86,29.77,12,3,13,0.00
2013-7-29,84,66,52,55,50,43,90,62,27,30.00,29.85,10,4,13,0.00
2013-7-30,83,82,81,51,50,47,34,34,31,30.04,30.02,8,5,14,0.00
2013-7-31,88,63,50,56,51,46,93,70,26,30.08,29.95,8,1,14,0.00
2013-8-1,92,73,52,49,44,34,86,44,13,30.04,29.89,6,3,15,0.00
2013-8-2,95,68,49,52,44,23,90,53,8,29.97,29.84,8,2,10,0.00
2013-8-3,88,65,46,53,46,39,92,58,18,29.99,29.85,9,2,12,0.00
2013-8-4,66,54,49,54,49,46,94,86,64,30.00,29.96,2,0,3,0.00
2013-8-5,95,68,50,52,48,43,93,59,18,30.01,29.85,7,2,0,0.00
2013-8-6,73,63,55,51,50,48,83,63,43,30.05,29.93,8,2,10,0.00
2013-8-7,59,54,53,52,51,50,92,89,80,30.10,30.04,3,1,4,0.00
2013-8-8,86,73,55,55,48,36,82,46,19,30.00,29.87,10,4,14,0.00
2013-8-9,87,62,53,54,51,45,91,71,29,29.98,29.86,8,1,12,0.00
2013-8-10,91,69,55,56,52,45,91,61,24,30.03,29.92,9,2,13,0.00
2013-8-11,87,62,52,56,52,49,95,75,30,30.01,29.93,5,1,6,0.00
2013-8-12,97,72,52,54,49,43,91,52,18,29.98,29.85,9,2,11,0.00
2013-8-13,102,68,54,51,48,40,77,54,12,29.97,29.84,3,1,6,0.00
2013-8-14,102,76,56,52,45,31,77,41,9,29.94,29.79,5,3,9,0.00
2013-8-15,104,78,58,59,50,24,82,48,7,29.93,29.81,8,2,9,0.00
2013-8-16,102,79,60,61,54,39,86,49,12,29.94,29.83,8,2,8,0.00
2013-8-17,101,76,61,56,50,36,71,45,11,29.95,29.79,7,3,11,0.00
2013-8-18,102,76,57,58,52,44,86,50,15,29.88,29.72,3,1,5,0.00
2013-8-19,92,76,62,54,49,43,61,42,20,29.87,29.77,12,3,14,0.00
2013-8-20,85,64,56,56,52,42,83,66,25,29.89,29.83,7,1,7,0.00
2013-8-21,89,66,49,52,47,39,92,57,19,29.91,29.82,10,2,13,0.00
2013-8-22,86,69,49,54,49,45,92,57,25,29.94,29.81,10,3,16,0.00
2013-8-23,94,68,53,56,51,40,93,62,18,29.91,29.74,7,2,16,0.00
2013-8-24,94,65,52,55,50,42,92,67,17,29.87,29.76,5,2,7,0.00
2013-8-25,71,61,56,57,54,52,89,80,63,29.92,29.86,5,1,6,0.00
2013-8-26,91,64,56,58,55,53,93,78,29,29.98,29.87,4,1,5,0.00
2013-8-27,96,73,56,56,50,41,79,51,16,29.89,29.76,9,2,14,0.00
2013-8-28,95,74,57,56,51,33,84,52,12,29.92,29.81,9,2,10,0.00
2013-8-29,100,74,57,60,55,48,95,59,18,30.00,29.88,5,2,7,0.00
2013-8-30,102,80,63,57,54,50,76,46,19,30.00,29.84,8,2,12,0.00
2013-8-31,91,77,65,66,57,50,73,51,31,29.94,29.85,10,3,16,0.00
2013-9-1,89,75,66,68,60,53,73,61,46,29.91,29.83,10,3,15,0.00
2013-9-2,69,65,63,58,56,54,77,72,64,29.92,29.87,2,0,3,0.00
2013-9-3,94,74,61,60,56,50,86,57,28,29.95,29.83,6,3,7,0.00
2013-9-4,96,69,59,56,53,52,78,61,25,29.98,29.84,6,2,6,0.00
2013-9-5,93,70,58,55,53,52,82,59,25,29.97,29.84,6,3,6,0.00
2013-9-6,100,70,58,52,50,45,76,55,16,29.94,29.81,5,2,6,0.00
2013-9-7,96,74,56,53,41,16,67,37,7,29.87,29.77,9,2,16,0.00
2013-9-8,95,67,56,54,49,45,76,55,19,29.86,29.79,2,0,5,0.00
2013-9-9,102,75,57,53,48,44,66,43,14,29.80,29.65,7,1,10,0.00
2013-9-10,81,67,55,55,51,46,81,59,35,29.90,29.73,10,3,15,0.00
2013-9-11,84,66,52,57,53,48,94,68,35,29.99,29.89,9,3,10,0.00
2013-9-12,94,68,55,58,54,51,94,67,24,29.98,29.81,6,1,9,0.00
2013-9-13,94,71,52,58,52,45,94,60,20,29.88,29.68,5,2,7,0.00
2013-9-14,90,64,53,54,50,38,90,66,17,29.78,29.72,5,1,9,0.00
2013-9-15,92,69,54,54,51,46,90,59,22,29.82,29.72,5,2,7,0.00
2013-9-16,93,74,57,56,52,45,88,55,19,29.86,29.72,7,2,7,0.00
2013-9-17,82,69,55,54,48,42,87,51,25,29.86,29.76,7,5,12,0.00
2013-9-18,89,66,49,53,47,43,94,58,22,29.90,29.76,4,2,9,0.00
2013-9-19,96,70,51,47,43,36,76,43,13,29.85,29.70,4,1,6,0.00
2013-9-20,80,65,52,54,46,39,87,52,30,29.88,29.76,10,2,13,0.00
2013-9-21,72,62,55,59,54,50,92,75,53,29.91,29.82,7,2,13,0.00
2013-9-22,77,62,50,52,48,45,93,65,36,29.97,29.88,5,2,8,0.00
2013-9-23,90,69,52,52,48,45,84,53,24,30.00,29.86,4,1,7,0.00
2013-9-24,91,70,53,54,50,46,84,54,23,29.97,29.81,5,2,8,0.00
2013-9-25,73,58,53,48,45,38,74,63,29,29.91,29.81,7,4,12,0.00
2013-9-26,76,58,44,45,40,32,88,56,21,29.97,29.81,12,2,12,0.00
2013-9-27,54,48,41,38,36,34,78,64,48,30.07,29.97,2,0,2,0.00
2013-9-28,85,60,47,38,33,22,60,40,12,30.09,29.96,5,1,6,0.00
2013-9-29,91,67,46,53,37,29,76,37,13,30.11,29.97,5,2,8,0.00
2013-9-30,86,64,49,57,51,35,94,68,18,30.07,29.89,5,2,7,0.00
2013-10-1,83,65,55,57,51,42,96,65,34,29.99,29.85,4,2,8,0.00
2013-10-2,83,61,47,48,42,18,84,55,9,29.98,29.86,4,2,6,0.00
2013-10-3,80,61,46,42,36,29,76,44,19,29.97,29.86,4,2,8,0.00
2013-10-4,83,63,42,35,29,23,64,34,11,30.10,29.94,5,1,10,0.00
2013-10-5,88,67,47,34,27,20,48,26,9,30.19,30.08,5,1,12,0.00
2013-10-6,89,57,48,35,28,20,43,33,8,30.14,30.01,2,0,4,0.00
2013-10-7,88,63,48,41,30,23,45,30,11,30.00,29.85,8,1,12,0.00
2013-10-8,77,57,42,47,38,29,86,52,20,29.91,29.76,8,3,13,0.00
2013-10-9,60,51,44,46,44,40,87,77,52,29.81,29.64,7,2,11,0.00
2013-10-10,72,53,39,48,43,37,95,73,37,30.04,29.80,9,3,13,0.00
2013-10-11,80,57,45,48,44,39,95,67,24,30.09,29.94,5,1,8,0.00
2013-10-12,80,58,39,47,41,37,94,59,24,30.02,29.87,8,1,8,0.00
2013-10-13,76,57,42,48,42,37,92,61,32,30.07,29.93,4,1,7,0.00
2013-10-14,81,60,44,44,39,35,84,52,20,30.11,29.96,3,0,5,0.00
2013-10-15,84,62,44,41,37,32,71,43,16,30.03,29.91,4,1,6,0.00
2013-10-16,86,64,47,40,33,26,59,35,12,30.11,29.99,6,1,8,0.00
2013-10-17,80,48,42,36,33,27,67,56,19,30.09,30.01,1,0,1,0.00
2013-10-18,88,74,59,40,34,30,40,24,14,30.03,29.94,3,1,4,0.00
2013-10-19,86,53,46,36,34,32,60,49,16,30.08,30.01,2,0,2,0.00
2013-10-20,89,74,56,41,35,29,50,26,12,30.01,29.86,3,1,4,0.00
2013-10-21,89,59,41,44,37,18,79,50,8,30.00,29.86,3,0,5,0.00
2013-10-22,84,60,42,46,40,33,87,56,18,30.02,29.88,1,0,2,0.00
2013-10-23,88,60,44,50,43,36,85,58,17,29.95,29.84,3,0,5,0.00
2013-10-24,75,56,43,51,45,41,97,71,36,30.09,29.97,4,1,4,0.00
2013-10-25,84,58,40,50,42,37,96,64,19,30.18,30.04,2,0,5,0.00
2013-10-26,87,62,42,46,42,37,91,54,18,30.14,29.97,2,0,5,0.00
2013-10-27,79,56,43,47,42,37,86,63,29,30.03,29.77,8,2,10,0.00
2013-10-28,60,53,48,49,45,40,85,73,55,29.90,29.75,7,3,12,0.00
2013-10-29,64,53,47,48,45,42,91,77,53,30.05,29.90,6,1,6,0.00
2013-10-30,70,52,39,46,42,37,95,71,38,30.15,30.04,3,1,6,0.00
2013-10-31,74,55,41,45,41,38,91,61,30,30.19,30.05,4,1,7,0.00
2013-11-1,81,59,39,44,37,30,87,50,16,30.17,30.00,2,0,3,0.00
2013-11-2,84,59,40,45,36,29,78,48,14,30.04,29.87,6,1,8,0.00
2013-11-3,71,56,44,46,38,26,93,57,26,30.00,29.86,4,1,6,0.00
2013-11-4,65,51,38,34,31,27,77,50,25,29.98,29.88,6,1,7,0.00
2013-11-5,69,48,38,32,29,27,67,52,23,30.20,30.07,3,0,5,0.00
2013-11-6,80,56,37,32,27,19,62,36,11,30.28,30.16,2,0,5,0.00
2013-11-7,80,48,42,30,25,23,49,41,12,30.19,30.05,1,0,3,0.00
2013-11-8,80,57,40,36,31,28,66,40,16,30.08,29.93,2,0,5,0.00
2013-11-9,71,48,36,35,30,27,69,51,27,30.05,30.00,1,0,3,0.00
2013-11-10,76,53,37,48,39,32,94,64,23,30.13,30.05,9,2,10,0.00
2013-11-11,79,57,37,43,38,29,95,56,16,30.18,30.06,4,1,8,0.00
2013-11-12,74,61,53,47,41,37,67,50,31,30.27,30.14,5,1,8,0.00
2013-11-13,78,60,42,44,40,36,85,52,24,30.23,30.07,4,1,9,0.00
2013-11-14,77,58,43,47,43,37,89,61,30,30.11,29.85,5,2,9,0.00
2013-11-15,67,52,43,45,42,38,93,70,39,29.86,29.70,6,2,10,0.00
2013-11-16,65,48,35,45,40,33,94,77,47,29.97,29.80,6,1,7,0.00
2013-11-17,66,50,40,48,43,38,95,80,50,30.11,29.97,2,0,4,0.00
2013-11-18,66,50,37,47,42,35,95,75,47,30.18,30.07,5,1,8,0.00
2013-11-19,63,51,40,47,44,38,94,76,54,30.14,29.98,4,0,5,0.00
2013-11-20,61,54,50,57,52,46,95,90,77,30.00,29.85,3,0,6,0.18
2013-11-21,61,53,46,52,48,40,96,86,63,29.94,29.84,4,1,4,0.05
2013-11-22,54,47,42,43,41,38,91,81,63,30.03,29.93,3,1,4,0.00
2013-11-23,66,47,35,45,39,33,93,74,44,30.14,29.99,3,0,8,0.00
2013-11-24,66,49,34,44,38,32,96,69,37,30.27,30.13,2,0,5,0.00
2013-11-25,68,51,37,45,40,34,92,68,39,30.34,30.24,3,0,5,0.00
2013-11-26,67,51,39,46,41,36,91,71,42,30.27,30.07,1,0,3,0.00
2013-11-27,71,53,39,45,41,36,91,67,28,30.07,29.84,10,2,15,0.00
2013-11-28,67,53,43,44,41,37,86,67,33,30.08,29.88,4,0,5,0.00
2013-11-29,50,48,45,42,41,39,80,77,72,30.17,30.08,2,0,2,0.00
2013-11-30,46,42,40,36,34,33,79,73,66,30.28,30.23,0,0,1,0.00
2013-12-1,71,53,37,43,39,33,90,61,30,30.35,30.20,3,0,5,0.00
2013-12-2,73,52,40,42,39,35,83,64,29,30.25,30.02,3,0,4,0.00
2013-12-3,59,47,36,49,40,29,96,76,44,29.97,29.78,8,2,10,0.00
2013-12-4,50,31,25,29,26,15,93,82,34,30.07,29.91,3,0,5,0.00
2013-12-5,48,34,22,20,15,11,74,48,24,30.22,30.08,4,0,9,0.00
2013-12-6,30,23,18,13,12,10,71,61,49,30.25,30.21,0,0,1,0.00
2013-12-7,49,44,36,45,36,26,95,75,51,30.20,29.97,7,3,12,0.31
2013-12-8,45,32,24,28,24,21,91,76,49,30.32,30.20,5,0,9,0.00
2013-12-9,49,35,25,29,23,21,87,64,36,30.44,30.31,4,0,6,0.00
2013-12-10,54,26,21,21,19,17,84,74,25,30.43,30.23,4,0,4,0.00
2013-12-11,64,44,28,28,23,19,74,48,21,30.27,30.18,2,0,4,0.00
2013-12-12,67,42,26,32,24,20,82,52,20,30.28,30.17,3,0,3,0.00
2013-12-13,59,42,25,34,29,23,93,63,32,30.35,30.23,3,0,5,0.00
2013-12-14,66,46,30,30,27,24,79,52,24,30.40,30.29,2,0,3,0.00
2013-12-15,68,49,32,31,27,23,73,46,22,30.38,30.21,4,1,5,0.00
2013-12-16,72,53,38,33,28,26,63,41,20,30.25,30.12,2,0,3,0.00
2013-12-17,64,49,38,35,29,25,62,47,31,30.18,30.03,1,0,2,0.00
2013-12-18,60,50,46,45,38,30,87,66,40,30.03,29.82,10,2,13,0.00
2013-12-19,54,48,44,43,40,35,88,74,49,29.84,29.74,6,2,9,0.00
2013-12-20,46,33,30,33,30,26,92,86,45,30.00,29.91,1,0,3,0.00
2013-12-21,58,42,31,29,23,19,63,48,30,30.12,29.99,5,0,5,0.00
2013-12-22,65,46,30,36,29,23,77,54,32,30.33,30.12,3,0,6,0.00
2013-12-23,72,49,31,36,32,27,89,55,27,30.41,30.30,2,0,2,0.00
2013-12-24,72,53,40,38,34,30,69,51,27,30.34,30.19,4,1,5,0.00
2013-12-25,48,40,35,34,31,29,82,71,55,30.29,30.25,2,0,0,0.00
2013-12-26,74,50,34,34,26,14,69,44,11,30.28,30.15,3,0,4,0.00
2013-12-27,72,50,32,28,24,21,65,38,18,30.26,30.12,1,0,3,0.00
2013-12-28,58,43,35,30,22,21,56,45,31,30.12,30.08,2,0,2,0.00
2013-12-29,61,42,36,31,27,24,65,56,31,30.20,30.10,2,0,4,0.00
2013-12-30,72,48,30,24,19,15,66,37,11,30.28,30.20,6,1,8,0.00
2013-12-31,69,47,31,28,22,18,60,41,15,30.28,30.13,2,0,3,0.00
2014-1-1,70,51,36,34,29,25,74,46,22,30.23,30.10,2,0,4,0.00
2014-1-2,57,45,36,30,27,24,69,50,32,30.18,30.05,1,0,1,0.00